sensor_id;sensor_type;location;lat;lon;timestamp;P1;durP1;ratioP1;P2;durP2;ratioP2
4450;SDS011;2238;50.180;9.230;2022-12-22T00:02:13;5.07;;;4.47;;
4450;SDS011;2238;50.180;9.230;2022-12-22T00:05:35;4.27;;;3.97;;
4450;SDS011;2238;50.180;9.230;2022-12-22T00:08:54;4.43;;;4.03;;
4450;SDS011;2238;50.180;9.230;2022-12-22T00:12:13;5.27;;;4.23;;
4450;SDS011;2238;50.180;9.230;2022-12-22T00:15:34;4.80;;;4.40;;
4450;SDS011;2238;50.180;9.230;2022-12-22T00:18:54;4.13;;;3.80;;
4450;SDS011;2238;50.180;9.230;2022-12-22T00:22:14;3.67;;;3.37;;
4450;SDS011;2238;50.180;9.230;2022-12-22T00:25:38;4.00;;;3.70;;
4450;SDS011;2238;50.180;9.230;2022-12-22T00:28:57;4.90;;;4.40;;
4450;SDS011;2238;50.180;9.230;2022-12-22T00:32:16;4.57;;;4.17;;
4450;SDS011;2238;50.180;9.230;2022-12-22T00:35:35;4.77;;;4.27;;
4450;SDS011;2238;50.180;9.230;2022-12-22T00:38:55;4.50;;;4.10;;
4450;SDS011;2238;50.180;9.230;2022-12-22T00:42:14;5.33;;;4.50;;
4450;SDS011;2238;50.180;9.230;2022-12-22T00:45:39;3.73;;;3.43;;
4450;SDS011;2238;50.180;9.230;2022-12-22T00:48:59;3.77;;;3.40;;
4450;SDS011;2238;50.180;9.230;2022-12-22T00:52:19;4.03;;;3.10;;
4450;SDS011;2238;50.180;9.230;2022-12-22T00:55:39;3.00;;;2.80;;
4450;SDS011;2238;50.180;9.230;2022-12-22T00:58:58;2.60;;;2.50;;
4450;SDS011;2238;50.180;9.230;2022-12-22T01:02:18;2.60;;;2.40;;
4450;SDS011;2238;50.180;9.230;2022-12-22T01:05:37;2.07;;;1.73;;
4450;SDS011;2238;50.180;9.230;2022-12-22T01:08:56;1.50;;;1.40;;
4450;SDS011;2238;50.180;9.230;2022-12-22T01:12:20;1.80;;;1.70;;
4450;SDS011;2238;50.180;9.230;2022-12-22T01:15:41;2.17;;;1.97;;
4450;SDS011;2238;50.180;9.230;2022-12-22T01:19:00;1.80;;;1.70;;
4450;SDS011;2238;50.180;9.230;2022-12-22T01:22:19;1.90;;;1.43;;
4450;SDS011;2238;50.180;9.230;2022-12-22T01:25:39;2.53;;;2.30;;
4450;SDS011;2238;50.180;9.230;2022-12-22T01:28:57;2.37;;;2.17;;
4450;SDS011;2238;50.180;9.230;2022-12-22T01:32:16;2.53;;;2.33;;
4450;SDS011;2238;50.180;9.230;2022-12-22T01:35:35;2.20;;;2.10;;
4450;SDS011;2238;50.180;9.230;2022-12-22T01:38:55;2.03;;;1.80;;
4450;SDS011;2238;50.180;9.230;2022-12-22T01:42:14;2.00;;;1.90;;
4450;SDS011;2238;50.180;9.230;2022-12-22T01:45:35;2.20;;;2.10;;
4450;SDS011;2238;50.180;9.230;2022-12-22T01:48:54;2.27;;;2.17;;
4450;SDS011;2238;50.180;9.230;2022-12-22T01:52:14;2.07;;;1.97;;
4450;SDS011;2238;50.180;9.230;2022-12-22T01:55:35;2.27;;;2.07;;
4450;SDS011;2238;50.180;9.230;2022-12-22T01:58:54;1.80;;;1.70;;
4450;SDS011;2238;50.180;9.230;2022-12-22T02:02:16;2.07;;;1.80;;
4450;SDS011;2238;50.180;9.230;2022-12-22T02:05:39;2.10;;;1.60;;
4450;SDS011;2238;50.180;9.230;2022-12-22T02:12:52;2.00;;;1.87;;
4450;SDS011;2238;50.180;9.230;2022-12-22T02:16:33;1.80;;;1.70;;
4450;SDS011;2238;50.180;9.230;2022-12-22T02:23:44;2.07;;;1.97;;
4450;SDS011;2238;50.180;9.230;2022-12-22T02:27:09;2.33;;;2.23;;
4450;SDS011;2238;50.180;9.230;2022-12-22T02:30:29;1.90;;;1.80;;
4450;SDS011;2238;50.180;9.230;2022-12-22T02:33:50;2.03;;;1.90;;
4450;SDS011;2238;50.180;9.230;2022-12-22T02:37:15;2.27;;;2.17;;
4450;SDS011;2238;50.180;9.230;2022-12-22T02:45:12;1.77;;;1.67;;
4450;SDS011;2238;50.180;9.230;2022-12-22T02:48:33;1.70;;;1.60;;
4450;SDS011;2238;50.180;9.230;2022-12-22T02:52:00;1.80;;;1.70;;
4450;SDS011;2238;50.180;9.230;2022-12-22T02:55:31;1.70;;;1.60;;
4450;SDS011;2238;50.180;9.230;2022-12-22T02:58:51;1.73;;;1.63;;
4450;SDS011;2238;50.180;9.230;2022-12-22T03:02:12;1.80;;;1.43;;
4450;SDS011;2238;50.180;9.230;2022-12-22T03:05:31;1.40;;;1.30;;
4450;SDS011;2238;50.180;9.230;2022-12-22T03:08:50;1.70;;;1.60;;
4450;SDS011;2238;50.180;9.230;2022-12-22T03:12:09;2.37;;;2.27;;
4450;SDS011;2238;50.180;9.230;2022-12-22T03:15:28;1.90;;;1.80;;
4450;SDS011;2238;50.180;9.230;2022-12-22T03:18:47;6.50;;;2.23;;
4450;SDS011;2238;50.180;9.230;2022-12-22T03:22:07;1.80;;;1.70;;
4450;SDS011;2238;50.180;9.230;2022-12-22T03:25:26;2.07;;;1.80;;
4450;SDS011;2238;50.180;9.230;2022-12-22T03:28:45;2.33;;;2.20;;
4450;SDS011;2238;50.180;9.230;2022-12-22T03:31:45;2.07;;;1.97;;
4450;SDS011;2238;50.180;9.230;2022-12-22T03:34:46;4.00;;;2.00;;
4450;SDS011;2238;50.180;9.230;2022-12-22T03:37:46;2.80;;;2.20;;
4450;SDS011;2238;50.180;9.230;2022-12-22T03:40:47;2.43;;;2.27;;
4450;SDS011;2238;50.180;9.230;2022-12-22T03:43:47;2.27;;;2.13;;
4450;SDS011;2238;50.180;9.230;2022-12-22T03:47:07;2.70;;;2.47;;
4450;SDS011;2238;50.180;9.230;2022-12-22T03:50:07;2.67;;;2.47;;
4450;SDS011;2238;50.180;9.230;2022-12-22T03:53:08;2.43;;;2.33;;
4450;SDS011;2238;50.180;9.230;2022-12-22T03:56:09;2.13;;;2.03;;
4450;SDS011;2238;50.180;9.230;2022-12-22T03:59:09;3.33;;;3.03;;
4450;SDS011;2238;50.180;9.230;2022-12-22T04:02:11;2.23;;;2.13;;
4450;SDS011;2238;50.180;9.230;2022-12-22T04:05:12;2.50;;;2.30;;
4450;SDS011;2238;50.180;9.230;2022-12-22T04:08:13;2.43;;;2.23;;
4450;SDS011;2238;50.180;9.230;2022-12-22T04:11:14;4.20;;;2.30;;
4450;SDS011;2238;50.180;9.230;2022-12-22T04:14:34;5.07;;;2.67;;
4450;SDS011;2238;50.180;9.230;2022-12-22T04:17:35;2.53;;;2.33;;
4450;SDS011;2238;50.180;9.230;2022-12-22T04:20:36;3.27;;;2.00;;
4450;SDS011;2238;50.180;9.230;2022-12-22T04:23:36;2.90;;;2.70;;
4450;SDS011;2238;50.180;9.230;2022-12-22T04:26:37;4.17;;;2.50;;
4450;SDS011;2238;50.180;9.230;2022-12-22T04:29:38;2.23;;;1.90;;
4450;SDS011;2238;50.180;9.230;2022-12-22T04:32:39;2.33;;;2.07;;
4450;SDS011;2238;50.180;9.230;2022-12-22T04:35:39;2.20;;;2.00;;
4450;SDS011;2238;50.180;9.230;2022-12-22T04:38:40;2.37;;;2.17;;
4450;SDS011;2238;50.180;9.230;2022-12-22T04:41:41;4.53;;;2.10;;
4450;SDS011;2238;50.180;9.230;2022-12-22T04:44:41;2.87;;;1.83;;
4450;SDS011;2238;50.180;9.230;2022-12-22T04:47:42;2.40;;;2.20;;
4450;SDS011;2238;50.180;9.230;2022-12-22T04:50:42;2.83;;;2.63;;
4450;SDS011;2238;50.180;9.230;2022-12-22T04:53:43;3.03;;;2.73;;
4450;SDS011;2238;50.180;9.230;2022-12-22T04:56:44;2.77;;;2.50;;
4450;SDS011;2238;50.180;9.230;2022-12-22T04:59:44;2.20;;;2.00;;
4450;SDS011;2238;50.180;9.230;2022-12-22T05:02:45;2.53;;;2.33;;
4450;SDS011;2238;50.180;9.230;2022-12-22T05:05:45;3.47;;;2.10;;
4450;SDS011;2238;50.180;9.230;2022-12-22T05:08:46;2.60;;;2.40;;
4450;SDS011;2238;50.180;9.230;2022-12-22T05:11:47;2.43;;;2.10;;
4450;SDS011;2238;50.180;9.230;2022-12-22T05:14:47;3.83;;;2.37;;
4450;SDS011;2238;50.180;9.230;2022-12-22T05:17:48;5.00;;;2.10;;
4450;SDS011;2238;50.180;9.230;2022-12-22T05:20:49;6.03;;;2.57;;
4450;SDS011;2238;50.180;9.230;2022-12-22T05:23:49;2.80;;;2.60;;
4450;SDS011;2238;50.180;9.230;2022-12-22T05:26:50;5.27;;;2.60;;
4450;SDS011;2238;50.180;9.230;2022-12-22T05:29:50;2.37;;;2.17;;
4450;SDS011;2238;50.180;9.230;2022-12-22T05:32:51;2.37;;;2.00;;
4450;SDS011;2238;50.180;9.230;2022-12-22T05:35:52;3.83;;;2.77;;
4450;SDS011;2238;50.180;9.230;2022-12-22T05:38:52;3.27;;;2.97;;
4450;SDS011;2238;50.180;9.230;2022-12-22T05:41:53;4.10;;;3.43;;
4450;SDS011;2238;50.180;9.230;2022-12-22T05:44:53;3.80;;;2.67;;
4450;SDS011;2238;50.180;9.230;2022-12-22T05:47:54;3.40;;;2.50;;
4450;SDS011;2238;50.180;9.230;2022-12-22T05:50:54;5.47;;;2.63;;
4450;SDS011;2238;50.180;9.230;2022-12-22T05:53:55;2.70;;;2.50;;
4450;SDS011;2238;50.180;9.230;2022-12-22T05:56:55;2.63;;;2.40;;
4450;SDS011;2238;50.180;9.230;2022-12-22T05:59:56;3.80;;;2.30;;
4450;SDS011;2238;50.180;9.230;2022-12-22T06:02:57;2.90;;;2.70;;
4450;SDS011;2238;50.180;9.230;2022-12-22T06:05:58;4.80;;;2.40;;
4450;SDS011;2238;50.180;9.230;2022-12-22T06:08:59;2.13;;;2.03;;
4450;SDS011;2238;50.180;9.230;2022-12-22T06:11:59;2.90;;;2.37;;
4450;SDS011;2238;50.180;9.230;2022-12-22T06:15:00;2.90;;;2.60;;
4450;SDS011;2238;50.180;9.230;2022-12-22T06:18:00;4.37;;;2.27;;
4450;SDS011;2238;50.180;9.230;2022-12-22T06:21:01;2.50;;;2.13;;
4450;SDS011;2238;50.180;9.230;2022-12-22T06:24:02;2.50;;;1.80;;
4450;SDS011;2238;50.180;9.230;2022-12-22T06:27:03;2.03;;;1.40;;
4450;SDS011;2238;50.180;9.230;2022-12-22T06:30:04;1.80;;;1.70;;
4450;SDS011;2238;50.180;9.230;2022-12-22T06:33:05;3.63;;;1.70;;
4450;SDS011;2238;50.180;9.230;2022-12-22T06:36:06;1.30;;;1.30;;
4450;SDS011;2238;50.180;9.230;2022-12-22T06:39:07;2.87;;;1.30;;
4450;SDS011;2238;50.180;9.230;2022-12-22T06:42:08;2.90;;;2.60;;
4450;SDS011;2238;50.180;9.230;2022-12-22T06:45:28;2.47;;;1.90;;
4450;SDS011;2238;50.180;9.230;2022-12-22T06:48:29;1.67;;;1.57;;
4450;SDS011;2238;50.180;9.230;2022-12-22T06:51:30;2.20;;;1.53;;
4450;SDS011;2238;50.180;9.230;2022-12-22T06:54:30;2.17;;;1.50;;
4450;SDS011;2238;50.180;9.230;2022-12-22T06:57:31;2.50;;;1.50;;
4450;SDS011;2238;50.180;9.230;2022-12-22T07:00:32;2.10;;;1.90;;
4450;SDS011;2238;50.180;9.230;2022-12-22T07:03:32;4.77;;;1.93;;
4450;SDS011;2238;50.180;9.230;2022-12-22T07:06:33;4.33;;;1.97;;
4450;SDS011;2238;50.180;9.230;2022-12-22T07:09:34;1.63;;;1.53;;
4450;SDS011;2238;50.180;9.230;2022-12-22T07:12:34;2.33;;;2.13;;
4450;SDS011;2238;50.180;9.230;2022-12-22T07:15:35;1.83;;;1.43;;
4450;SDS011;2238;50.180;9.230;2022-12-22T07:18:37;1.90;;;1.70;;
4450;SDS011;2238;50.180;9.230;2022-12-22T07:21:41;1.30;;;1.30;;
4450;SDS011;2238;50.180;9.230;2022-12-22T07:24:41;1.37;;;1.27;;
4450;SDS011;2238;50.180;9.230;2022-12-22T07:27:42;2.00;;;1.73;;
4450;SDS011;2238;50.180;9.230;2022-12-22T07:30:43;1.30;;;1.20;;
4450;SDS011;2238;50.180;9.230;2022-12-22T07:33:43;6.90;;;2.80;;
4450;SDS011;2238;50.180;9.230;2022-12-22T07:36:44;2.00;;;1.80;;
4450;SDS011;2238;50.180;9.230;2022-12-22T07:39:44;3.60;;;1.63;;
4450;SDS011;2238;50.180;9.230;2022-12-22T07:42:45;2.43;;;1.80;;
4450;SDS011;2238;50.180;9.230;2022-12-22T07:45:46;2.07;;;1.53;;
4450;SDS011;2238;50.180;9.230;2022-12-22T07:48:46;2.23;;;1.60;;
4450;SDS011;2238;50.180;9.230;2022-12-22T07:52:05;1.87;;;1.50;;
4450;SDS011;2238;50.180;9.230;2022-12-22T07:55:06;2.03;;;1.30;;
4450;SDS011;2238;50.180;9.230;2022-12-22T07:58:07;1.83;;;1.40;;
4450;SDS011;2238;50.180;9.230;2022-12-22T08:01:08;2.70;;;1.93;;
4450;SDS011;2238;50.180;9.230;2022-12-22T08:04:09;1.70;;;1.60;;
4450;SDS011;2238;50.180;9.230;2022-12-22T08:07:10;5.10;;;3.00;;
4450;SDS011;2238;50.180;9.230;2022-12-22T08:10:11;3.37;;;1.60;;
4450;SDS011;2238;50.180;9.230;2022-12-22T08:13:11;3.57;;;1.60;;
4450;SDS011;2238;50.180;9.230;2022-12-22T08:16:12;4.40;;;3.33;;
4450;SDS011;2238;50.180;9.230;2022-12-22T08:19:13;2.00;;;1.90;;
4450;SDS011;2238;50.180;9.230;2022-12-22T08:22:13;2.60;;;1.67;;
4450;SDS011;2238;50.180;9.230;2022-12-22T08:25:14;4.23;;;1.90;;
4450;SDS011;2238;50.180;9.230;2022-12-22T08:28:14;1.57;;;1.43;;
4450;SDS011;2238;50.180;9.230;2022-12-22T08:31:16;1.57;;;1.47;;
4450;SDS011;2238;50.180;9.230;2022-12-22T08:34:18;3.50;;;1.90;;
4450;SDS011;2238;50.180;9.230;2022-12-22T08:37:20;1.70;;;1.40;;
4450;SDS011;2238;50.180;9.230;2022-12-22T08:40:24;2.70;;;1.90;;
4450;SDS011;2238;50.180;9.230;2022-12-22T08:43:27;2.60;;;2.03;;
4450;SDS011;2238;50.180;9.230;2022-12-22T08:46:31;3.37;;;1.93;;
4450;SDS011;2238;50.180;9.230;2022-12-22T08:49:32;2.30;;;2.00;;
4450;SDS011;2238;50.180;9.230;2022-12-22T08:52:33;2.67;;;2.00;;
4450;SDS011;2238;50.180;9.230;2022-12-22T08:55:33;6.07;;;1.90;;
4450;SDS011;2238;50.180;9.230;2022-12-22T08:58:34;2.40;;;2.00;;
4450;SDS011;2238;50.180;9.230;2022-12-22T09:01:35;3.50;;;2.57;;
4450;SDS011;2238;50.180;9.230;2022-12-22T09:04:38;3.17;;;2.60;;
4450;SDS011;2238;50.180;9.230;2022-12-22T09:07:38;2.97;;;2.07;;
4450;SDS011;2238;50.180;9.230;2022-12-22T09:10:40;3.13;;;2.10;;
4450;SDS011;2238;50.180;9.230;2022-12-22T09:13:42;3.33;;;2.03;;
4450;SDS011;2238;50.180;9.230;2022-12-22T09:16:43;5.00;;;2.07;;
4450;SDS011;2238;50.180;9.230;2022-12-22T09:19:44;2.17;;;1.97;;
4450;SDS011;2238;50.180;9.230;2022-12-22T09:22:44;4.70;;;2.33;;
4450;SDS011;2238;50.180;9.230;2022-12-22T09:25:45;3.30;;;2.03;;
4450;SDS011;2238;50.180;9.230;2022-12-22T09:28:45;5.43;;;2.20;;
4450;SDS011;2238;50.180;9.230;2022-12-22T09:31:46;3.00;;;2.20;;
4450;SDS011;2238;50.180;9.230;2022-12-22T09:34:47;5.30;;;2.47;;
4450;SDS011;2238;50.180;9.230;2022-12-22T09:37:48;4.57;;;2.57;;
4450;SDS011;2238;50.180;9.230;2022-12-22T09:40:48;5.80;;;2.27;;
4450;SDS011;2238;50.180;9.230;2022-12-22T09:43:49;6.40;;;2.80;;
4450;SDS011;2238;50.180;9.230;2022-12-22T09:46:49;5.63;;;3.73;;
4450;SDS011;2238;50.180;9.230;2022-12-22T09:49:51;7.00;;;4.10;;
4450;SDS011;2238;50.180;9.230;2022-12-22T09:52:56;9.57;;;5.90;;
4450;SDS011;2238;50.180;9.230;2022-12-22T09:55:59;6.63;;;3.00;;
4450;SDS011;2238;50.180;9.230;2022-12-22T09:59:00;5.63;;;2.70;;
4450;SDS011;2238;50.180;9.230;2022-12-22T10:02:09;4.93;;;2.93;;
4450;SDS011;2238;50.180;9.230;2022-12-22T10:08:32;5.30;;;2.47;;
4450;SDS011;2238;50.180;9.230;2022-12-22T10:11:35;6.10;;;2.63;;
4450;SDS011;2238;50.180;9.230;2022-12-22T10:14:40;6.73;;;2.37;;
4450;SDS011;2238;50.180;9.230;2022-12-22T10:17:43;6.13;;;2.70;;
4450;SDS011;2238;50.180;9.230;2022-12-22T10:20:44;3.30;;;2.97;;
4450;SDS011;2238;50.180;9.230;2022-12-22T10:27:37;9.53;;;2.90;;
4450;SDS011;2238;50.180;9.230;2022-12-22T10:30:38;8.93;;;3.57;;
4450;SDS011;2238;50.180;9.230;2022-12-22T10:53:18;8.40;;;3.23;;
4450;SDS011;2238;50.180;9.230;2022-12-22T10:56:24;8.10;;;3.50;;
4450;SDS011;2238;50.180;9.230;2022-12-22T10:59:29;8.90;;;3.40;;
4450;SDS011;2238;50.180;9.230;2022-12-22T11:02:32;5.63;;;3.60;;
4450;SDS011;2238;50.180;9.230;2022-12-22T11:05:36;7.90;;;4.30;;
4450;SDS011;2238;50.180;9.230;2022-12-22T11:08:37;6.23;;;4.33;;
4450;SDS011;2238;50.180;9.230;2022-12-22T11:11:39;6.20;;;3.73;;
4450;SDS011;2238;50.180;9.230;2022-12-22T11:14:58;6.67;;;4.03;;
4450;SDS011;2238;50.180;9.230;2022-12-22T11:18:34;6.60;;;3.90;;
4450;SDS011;2238;50.180;9.230;2022-12-22T11:21:40;6.83;;;4.90;;
4450;SDS011;2238;50.180;9.230;2022-12-22T11:28:34;6.10;;;4.57;;
4450;SDS011;2238;50.180;9.230;2022-12-22T11:38:10;3.20;;;2.70;;
4450;SDS011;2238;50.180;9.230;2022-12-22T11:47:56;6.00;;;3.30;;
4450;SDS011;2238;50.180;9.230;2022-12-22T11:51:23;5.20;;;3.27;;
4450;SDS011;2238;50.180;9.230;2022-12-22T12:11:30;5.63;;;3.30;;
4450;SDS011;2238;50.180;9.230;2022-12-22T12:21:47;6.03;;;3.97;;
4450;SDS011;2238;50.180;9.230;2022-12-22T12:24:59;8.77;;;3.47;;
4450;SDS011;2238;50.180;9.230;2022-12-22T12:31:12;3.53;;;3.20;;
4450;SDS011;2238;50.180;9.230;2022-12-22T12:34:16;7.30;;;3.90;;
4450;SDS011;2238;50.180;9.230;2022-12-22T12:43:39;4.37;;;4.07;;
4450;SDS011;2238;50.180;9.230;2022-12-22T12:46:42;5.30;;;3.80;;
4450;SDS011;2238;50.180;9.230;2022-12-22T12:53:05;4.70;;;4.20;;
4450;SDS011;2238;50.180;9.230;2022-12-22T12:56:09;5.23;;;4.73;;
4450;SDS011;2238;50.180;9.230;2022-12-22T12:59:10;5.13;;;4.30;;
4450;SDS011;2238;50.180;9.230;2022-12-22T13:02:44;7.10;;;4.00;;
4450;SDS011;2238;50.180;9.230;2022-12-22T13:15:41;7.23;;;4.57;;
4450;SDS011;2238;50.180;9.230;2022-12-22T13:18:44;4.93;;;4.40;;
4450;SDS011;2238;50.180;9.230;2022-12-22T13:21:45;5.30;;;4.90;;
4450;SDS011;2238;50.180;9.230;2022-12-22T13:24:47;4.30;;;3.90;;
4450;SDS011;2238;50.180;9.230;2022-12-22T13:27:48;7.50;;;4.50;;
4450;SDS011;2238;50.180;9.230;2022-12-22T13:30:59;4.40;;;4.00;;
4450;SDS011;2238;50.180;9.230;2022-12-22T13:37:22;5.07;;;4.60;;
4450;SDS011;2238;50.180;9.230;2022-12-22T13:40:26;4.07;;;3.77;;
4450;SDS011;2238;50.180;9.230;2022-12-22T13:43:31;3.63;;;3.33;;
4450;SDS011;2238;50.180;9.230;2022-12-22T13:46:32;4.20;;;3.70;;
4450;SDS011;2238;50.180;9.230;2022-12-22T13:49:35;4.20;;;3.67;;
4450;SDS011;2238;50.180;9.230;2022-12-22T13:52:35;5.30;;;4.07;;
4450;SDS011;2238;50.180;9.230;2022-12-22T13:55:39;4.93;;;4.53;;
4450;SDS011;2238;50.180;9.230;2022-12-22T13:58:50;4.90;;;4.40;;
4450;SDS011;2238;50.180;9.230;2022-12-22T14:02:01;4.30;;;3.87;;
4450;SDS011;2238;50.180;9.230;2022-12-22T14:05:08;4.30;;;3.80;;
4450;SDS011;2238;50.180;9.230;2022-12-22T14:08:11;3.90;;;3.60;;
4450;SDS011;2238;50.180;9.230;2022-12-22T14:11:12;6.37;;;3.87;;
4450;SDS011;2238;50.180;9.230;2022-12-22T14:14:26;4.50;;;4.10;;
4450;SDS011;2238;50.180;9.230;2022-12-22T14:17:28;4.50;;;4.20;;
4450;SDS011;2238;50.180;9.230;2022-12-22T14:20:36;4.10;;;3.70;;
4450;SDS011;2238;50.180;9.230;2022-12-22T14:23:39;7.03;;;4.27;;
4450;SDS011;2238;50.180;9.230;2022-12-22T14:26:42;3.83;;;3.53;;
4450;SDS011;2238;50.180;9.230;2022-12-22T14:29:43;5.23;;;4.10;;
4450;SDS011;2238;50.180;9.230;2022-12-22T14:32:45;5.40;;;4.90;;
4450;SDS011;2238;50.180;9.230;2022-12-22T14:35:50;5.23;;;4.83;;
4450;SDS011;2238;50.180;9.230;2022-12-22T14:41:52;5.87;;;5.37;;
4450;SDS011;2238;50.180;9.230;2022-12-22T14:44:55;8.27;;;6.03;;
4450;SDS011;2238;50.180;9.230;2022-12-22T14:47:56;7.07;;;6.37;;
4450;SDS011;2238;50.180;9.230;2022-12-22T14:50:57;7.30;;;6.37;;
4450;SDS011;2238;50.180;9.230;2022-12-22T14:53:58;7.30;;;6.10;;
4450;SDS011;2238;50.180;9.230;2022-12-22T14:57:03;7.00;;;6.30;;
4450;SDS011;2238;50.180;9.230;2022-12-22T15:03:32;9.33;;;8.30;;
4450;SDS011;2238;50.180;9.230;2022-12-22T15:06:36;6.80;;;6.20;;
4450;SDS011;2238;50.180;9.230;2022-12-22T15:09:39;11.30;;;10.23;;
4450;SDS011;2238;50.180;9.230;2022-12-22T15:12:40;8.67;;;7.93;;
4450;SDS011;2238;50.180;9.230;2022-12-22T15:15:41;9.60;;;8.80;;
4450;SDS011;2238;50.180;9.230;2022-12-22T15:18:43;9.60;;;8.47;;
4450;SDS011;2238;50.180;9.230;2022-12-22T15:21:44;7.50;;;6.20;;
4450;SDS011;2238;50.180;9.230;2022-12-22T15:24:45;7.40;;;6.80;;
4450;SDS011;2238;50.180;9.230;2022-12-22T15:27:47;6.67;;;6.07;;
4450;SDS011;2238;50.180;9.230;2022-12-22T15:30:48;8.20;;;7.50;;
4450;SDS011;2238;50.180;9.230;2022-12-22T15:33:49;7.27;;;6.50;;
4450;SDS011;2238;50.180;9.230;2022-12-22T15:36:49;5.40;;;4.90;;
4450;SDS011;2238;50.180;9.230;2022-12-22T15:39:50;4.57;;;4.23;;
4450;SDS011;2238;50.180;9.230;2022-12-22T15:42:50;5.00;;;4.60;;
4450;SDS011;2238;50.180;9.230;2022-12-22T15:45:51;5.03;;;4.53;;
4450;SDS011;2238;50.180;9.230;2022-12-22T15:48:52;5.63;;;5.10;;
4450;SDS011;2238;50.180;9.230;2022-12-22T15:51:54;5.73;;;5.23;;
4450;SDS011;2238;50.180;9.230;2022-12-22T15:54:58;6.57;;;5.97;;
4450;SDS011;2238;50.180;9.230;2022-12-22T15:57:59;6.33;;;5.80;;
4450;SDS011;2238;50.180;9.230;2022-12-22T16:00:59;4.60;;;4.23;;
4450;SDS011;2238;50.180;9.230;2022-12-22T16:04:00;6.30;;;5.80;;
4450;SDS011;2238;50.180;9.230;2022-12-22T16:07:01;5.83;;;5.33;;
4450;SDS011;2238;50.180;9.230;2022-12-22T16:10:02;5.33;;;4.90;;
4450;SDS011;2238;50.180;9.230;2022-12-22T16:13:03;4.27;;;3.93;;
4450;SDS011;2238;50.180;9.230;2022-12-22T16:16:04;6.53;;;6.00;;
4450;SDS011;2238;50.180;9.230;2022-12-22T16:19:10;4.83;;;4.30;;
4450;SDS011;2238;50.180;9.230;2022-12-22T16:22:17;4.20;;;3.80;;
4450;SDS011;2238;50.180;9.230;2022-12-22T16:25:22;3.43;;;3.23;;
4450;SDS011;2238;50.180;9.230;2022-12-22T16:28:26;2.50;;;2.30;;
4450;SDS011;2238;50.180;9.230;2022-12-22T16:31:27;4.03;;;3.50;;
4450;SDS011;2238;50.180;9.230;2022-12-22T16:34:27;2.77;;;2.57;;
4450;SDS011;2238;50.180;9.230;2022-12-22T16:37:28;4.13;;;3.83;;
4450;SDS011;2238;50.180;9.230;2022-12-22T16:40:29;4.27;;;3.97;;
4450;SDS011;2238;50.180;9.230;2022-12-22T16:43:35;2.50;;;2.40;;
4450;SDS011;2238;50.180;9.230;2022-12-22T16:46:38;3.03;;;2.83;;
4450;SDS011;2238;50.180;9.230;2022-12-22T16:49:38;9.80;;;2.80;;
4450;SDS011;2238;50.180;9.230;2022-12-22T16:52:39;2.70;;;2.50;;
4450;SDS011;2238;50.180;9.230;2022-12-22T16:55:40;4.07;;;3.67;;
4450;SDS011;2238;50.180;9.230;2022-12-22T16:58:41;2.93;;;2.73;;
4450;SDS011;2238;50.180;9.230;2022-12-22T17:01:43;1.97;;;1.87;;
4450;SDS011;2238;50.180;9.230;2022-12-22T17:04:49;2.07;;;1.97;;
4450;SDS011;2238;50.180;9.230;2022-12-22T17:07:51;3.10;;;2.90;;
4450;SDS011;2238;50.180;9.230;2022-12-22T17:10:53;3.30;;;2.97;;
4450;SDS011;2238;50.180;9.230;2022-12-22T17:13:57;2.70;;;2.50;;
4450;SDS011;2238;50.180;9.230;2022-12-22T17:17:03;7.00;;;4.30;;
4450;SDS011;2238;50.180;9.230;2022-12-22T17:20:04;3.23;;;2.97;;
4450;SDS011;2238;50.180;9.230;2022-12-22T17:23:05;5.77;;;4.70;;
4450;SDS011;2238;50.180;9.230;2022-12-22T17:26:06;3.90;;;3.60;;
4450;SDS011;2238;50.180;9.230;2022-12-22T17:29:18;3.10;;;2.63;;
4450;SDS011;2238;50.180;9.230;2022-12-22T17:32:20;2.43;;;2.23;;
4450;SDS011;2238;50.180;9.230;2022-12-22T17:35:22;3.23;;;2.93;;
4450;SDS011;2238;50.180;9.230;2022-12-22T17:38:24;3.60;;;2.10;;
4450;SDS011;2238;50.180;9.230;2022-12-22T17:41:26;3.90;;;3.60;;
4450;SDS011;2238;50.180;9.230;2022-12-22T17:44:27;4.93;;;3.30;;
4450;SDS011;2238;50.180;9.230;2022-12-22T17:47:27;2.30;;;2.10;;
4450;SDS011;2238;50.180;9.230;2022-12-22T17:50:28;4.70;;;4.30;;
4450;SDS011;2238;50.180;9.230;2022-12-22T17:53:28;4.07;;;3.73;;
4450;SDS011;2238;50.180;9.230;2022-12-22T17:56:30;3.27;;;2.97;;
4450;SDS011;2238;50.180;9.230;2022-12-22T17:59:30;3.50;;;3.20;;
4450;SDS011;2238;50.180;9.230;2022-12-22T18:02:31;2.93;;;2.60;;
4450;SDS011;2238;50.180;9.230;2022-12-22T18:05:34;4.47;;;3.37;;
4450;SDS011;2238;50.180;9.230;2022-12-22T18:08:39;12.73;;;9.40;;
4450;SDS011;2238;50.180;9.230;2022-12-22T18:11:39;3.03;;;2.83;;
4450;SDS011;2238;50.180;9.230;2022-12-22T18:14:40;4.13;;;3.80;;
4450;SDS011;2238;50.180;9.230;2022-12-22T18:17:41;5.43;;;4.83;;
4450;SDS011;2238;50.180;9.230;2022-12-22T18:20:42;6.20;;;4.50;;
4450;SDS011;2238;50.180;9.230;2022-12-22T18:23:44;5.73;;;5.23;;
4450;SDS011;2238;50.180;9.230;2022-12-22T18:26:45;7.47;;;4.50;;
4450;SDS011;2238;50.180;9.230;2022-12-22T18:29:46;12.97;;;7.73;;
4450;SDS011;2238;50.180;9.230;2022-12-22T18:32:47;11.17;;;5.80;;
4450;SDS011;2238;50.180;9.230;2022-12-22T18:35:49;8.53;;;6.33;;
4450;SDS011;2238;50.180;9.230;2022-12-22T18:38:50;10.30;;;5.70;;
4450;SDS011;2238;50.180;9.230;2022-12-22T18:41:50;7.60;;;5.20;;
4450;SDS011;2238;50.180;9.230;2022-12-22T18:44:53;15.47;;;7.27;;
4450;SDS011;2238;50.180;9.230;2022-12-22T18:47:53;9.53;;;6.03;;
4450;SDS011;2238;50.180;9.230;2022-12-22T18:50:55;13.03;;;4.93;;
4450;SDS011;2238;50.180;9.230;2022-12-22T18:53:55;11.30;;;7.17;;
4450;SDS011;2238;50.180;9.230;2022-12-22T18:56:56;15.70;;;6.50;;
4450;SDS011;2238;50.180;9.230;2022-12-22T18:59:57;15.23;;;6.57;;
4450;SDS011;2238;50.180;9.230;2022-12-22T19:02:58;11.87;;;6.20;;
4450;SDS011;2238;50.180;9.230;2022-12-22T19:06:00;17.43;;;6.10;;
4450;SDS011;2238;50.180;9.230;2022-12-22T19:09:00;15.80;;;6.30;;
4450;SDS011;2238;50.180;9.230;2022-12-22T19:12:01;14.63;;;7.50;;
4450;SDS011;2238;50.180;9.230;2022-12-22T19:15:02;14.20;;;6.90;;
4450;SDS011;2238;50.180;9.230;2022-12-22T19:18:05;13.63;;;6.87;;
4450;SDS011;2238;50.180;9.230;2022-12-22T19:21:11;13.60;;;6.20;;
4450;SDS011;2238;50.180;9.230;2022-12-22T19:24:16;14.10;;;6.40;;
4450;SDS011;2238;50.180;9.230;2022-12-22T19:27:18;16.43;;;6.20;;
4450;SDS011;2238;50.180;9.230;2022-12-22T19:30:24;15.60;;;6.27;;
4450;SDS011;2238;50.180;9.230;2022-12-22T19:33:31;17.33;;;6.40;;
4450;SDS011;2238;50.180;9.230;2022-12-22T19:36:35;17.37;;;6.37;;
4450;SDS011;2238;50.180;9.230;2022-12-22T19:39:35;17.63;;;6.53;;
4450;SDS011;2238;50.180;9.230;2022-12-22T19:42:36;13.60;;;6.27;;
4450;SDS011;2238;50.180;9.230;2022-12-22T19:45:39;17.33;;;7.37;;
4450;SDS011;2238;50.180;9.230;2022-12-22T19:48:40;15.13;;;6.33;;
4450;SDS011;2238;50.180;9.230;2022-12-22T19:51:40;17.30;;;7.20;;
4450;SDS011;2238;50.180;9.230;2022-12-22T19:54:41;15.37;;;7.10;;
4450;SDS011;2238;50.180;9.230;2022-12-22T19:57:42;22.23;;;10.50;;
4450;SDS011;2238;50.180;9.230;2022-12-22T20:00:44;20.80;;;7.63;;
4450;SDS011;2238;50.180;9.230;2022-12-22T20:03:45;18.00;;;7.07;;
4450;SDS011;2238;50.180;9.230;2022-12-22T20:06:46;18.67;;;7.33;;
4450;SDS011;2238;50.180;9.230;2022-12-22T20:09:47;20.30;;;7.90;;
4450;SDS011;2238;50.180;9.230;2022-12-22T20:12:48;17.13;;;8.00;;
4450;SDS011;2238;50.180;9.230;2022-12-22T20:15:51;13.50;;;6.97;;
4450;SDS011;2238;50.180;9.230;2022-12-22T20:18:51;23.40;;;8.00;;
4450;SDS011;2238;50.180;9.230;2022-12-22T20:21:52;16.33;;;7.97;;
4450;SDS011;2238;50.180;9.230;2022-12-22T20:24:52;20.87;;;6.40;;
4450;SDS011;2238;50.180;9.230;2022-12-22T20:27:54;19.47;;;8.07;;
4450;SDS011;2238;50.180;9.230;2022-12-22T20:30:55;17.60;;;7.40;;
4450;SDS011;2238;50.180;9.230;2022-12-22T20:33:56;16.17;;;7.50;;
4450;SDS011;2238;50.180;9.230;2022-12-22T20:36:57;21.37;;;8.13;;
4450;SDS011;2238;50.180;9.230;2022-12-22T20:39:59;13.67;;;7.20;;
4450;SDS011;2238;50.180;9.230;2022-12-22T20:42:59;22.40;;;8.17;;
4450;SDS011;2238;50.180;9.230;2022-12-22T20:46:10;14.43;;;6.60;;
4450;SDS011;2238;50.180;9.230;2022-12-22T20:49:14;15.83;;;6.87;;
4450;SDS011;2238;50.180;9.230;2022-12-22T20:52:16;17.30;;;6.40;;
4450;SDS011;2238;50.180;9.230;2022-12-22T20:55:18;20.33;;;6.57;;
4450;SDS011;2238;50.180;9.230;2022-12-22T20:58:24;12.77;;;6.40;;
4450;SDS011;2238;50.180;9.230;2022-12-22T21:01:27;15.93;;;7.33;;